Flight Track Log - Related Links

Times and Time Zones

All times are in EDT time to prevent confusion due to time zone crossing. See the GJS3706 flight status page for this flight to view local times or setup timezone preferences in your user account.

Time Position Orientation Groundspeed Altitude Reporting Facility
EDT Latitude Longitude Course Direction KTS MPH feet Rate Location/Type
Fri 08:03:56 AM 43.6706 -70.5428 264° West 235 270 5,700  Level Boston Center
Fri 08:05:08 AM 43.6953 -70.6597 286° West 272 313 9,400 2,455 Climbing Boston Center
Fri 08:06:08 AM 43.7133 -70.7539 285° West 278 320 11,100 1,800 Climbing Boston Center
Fri 08:07:08 AM 43.7006 -70.8808 262° West 308 354 13,000 1,800 Climbing Boston Center
Fri 08:08:00 AM 43.7281 -70.6521 264° West  Level FlightAware Approximate
Fri 08:08:08 AM 43.6689 -70.9936 249° West 339 390 14,700  Level Boston Center
Fri 08:09:00 AM 43.7179 -70.7841 264° West  Level FlightAware Approximate
Fri 08:09:08 AM 43.6392 -71.1375 254° West 355 409 16,600  Level Boston Center
Fri 08:10:08 AM 43.6136 -71.2700 255° West 360 414 18,300 1,700 Climbing Boston Center
Fri 08:11:08 AM 43.5919 -71.3908 256° West 360 414 20,000 1,750 Climbing Boston Center
Fri 08:12:08 AM 43.5681 -71.5231 256° West 360 414 21,800 1,800 Climbing Boston Center
Fri 08:13:08 AM 43.5439 -71.6553 256° West 360 414 23,600 1,900 Climbing Boston Center
Fri 08:14:08 AM 43.5197 -71.7844 256° West 355 409 25,600 1,850 Climbing Boston Center
Fri 08:15:08 AM 43.4975 -71.9050 256° West 345 397 27,300 1,350 Climbing Boston Center
Fri 08:16:08 AM 43.4750 -72.0308 256° West 340 391 28,300 950 Climbing Boston Center
Fri 08:17:08 AM 43.4503 -72.1569 255° West 335 386 29,200 850 Climbing Boston Center
Fri 08:18:08 AM 43.4256 -72.2886 256° West 340 391 30,000 800 Climbing Boston Center
Fri 08:19:08 AM 43.4028 -72.4172 256° West 340 391 30,800 800 Climbing Boston Center
Fri 08:20:08 AM 43.3861 -72.5517 260° West 350 403 31,600 800 Climbing Boston Center
Fri 08:21:08 AM 43.3817 -72.6828 267° West 355 409 32,400 800 Climbing Boston Center
Fri 08:22:08 AM 43.3731 -72.8172 265° West 355 409 33,200 800 Climbing Boston Center
Fri 08:23:08 AM 43.3683 -72.9542 267° West 355 409 34,000 800 Climbing Boston Center
Fri 08:24:08 AM 43.3594 -73.0883 265° West 355 409 34,800 800 Climbing Boston Center
Fri 08:25:08 AM 43.3544 -73.2167 267° West 350 403 35,600 600 Climbing Boston Center
Fri 08:26:08 AM 43.3472 -73.3481 266° West 350 403 36,000 200 Climbing Boston Center
Fri 08:27:08 AM 43.3356 -73.4933 264° West 350 403 36,000  Level Boston Center
Fri 08:28:08 AM 43.3278 -73.6303 266° West 355 409 36,000  Level Boston Center
Fri 08:29:08 AM 43.3203 -73.7586 265° West 361 415 36,000  Level Boston Center
Fri 08:30:08 AM 43.3144 -73.8983 267° West 371 427 36,000  Level Boston Center
Fri 08:31:08 AM 43.3061 -74.0408 265° West 371 427 36,000  Level Boston Center
Fri 08:32:08 AM 43.2978 -74.1803 265° West 371 427 36,000  Level Boston Center
Fri 08:33:08 AM 43.2894 -74.3228 265° West 376 433 36,000  Level Boston Center
Fri 08:34:08 AM 43.2806 -74.4678 265° West 381 438 36,000  Level Boston Center
Fri 08:35:08 AM 43.2717 -74.6131 265° West 381 438 36,000  Level Boston Center
Fri 08:36:08 AM 43.2628 -74.7553 265° West 386 444 36,000  Level Boston Center
Fri 08:37:08 AM 43.2533 -74.9003 265° West 386 444 36,000  Level Boston Center
Fri 08:38:08 AM 43.2439 -75.0453 265° West 386 444 36,000  Level Boston Center
Fri 08:39:08 AM 43.2339 -75.2075 265° West 386 444 36,000  Level Boston Center
Fri 08:40:08 AM 43.2200 -75.3492 262° West 386 444 36,000  Level Boston Center
Fri 08:41:08 AM 43.2119 -75.4914 266° West 386 444 36,000  Level Boston Center
Fri 08:42:08 AM 43.2019 -75.6333 265° West 386 444 36,000  Level Boston Center
Fri 08:43:08 AM 43.1936 -75.7725 265° West 381 438 36,000  Level Boston Center
Fri 08:45:08 AM 43.1719 -76.0508 264° West 373 429 36,000  Level Cleveland Center
Fri 08:46:08 AM 43.1625 -76.1908 265° West 373 429 36,000  Level Cleveland Center
Fri 08:47:08 AM 43.1617 -76.3306 270° West 373 429 36,000  Level Cleveland Center
Fri 08:48:08 AM 43.1603 -76.4672 269° West 367 422 36,000  Level Cleveland Center
Fri 08:49:08 AM 43.1608 -76.6039 270° West 367 422 36,000  Level Cleveland Center
Fri 08:50:08 AM 43.1586 -76.7236 269° West 359 413 36,000  Level Cleveland Center
Fri 08:51:08 AM 43.1592 -76.8631 270° West 364 419 36,000  Level Cleveland Center
Fri 08:52:08 AM 43.1572 -77.0028 269° West 364 419 36,000  Level Cleveland Center
Fri 08:53:08 AM 43.1572 -77.1394 270° West 364 419 36,000  Level Cleveland Center
Fri 08:54:08 AM 43.1569 -77.2761 270° West 364 419 36,000  Level Cleveland Center
Fri 08:55:08 AM 43.1547 -77.4186 269° West 364 419 36,000  Level Cleveland Center
Fri 08:56:08 AM 43.1522 -77.5553 269° West 364 419 36,000  Level Cleveland Center
Fri 08:57:08 AM 43.1517 -77.6947 270° West 364 419 36,000  Level Cleveland Center
Fri 08:58:08 AM 43.1508 -77.8342 270° West 369 425 36,000  Level Cleveland Center
Fri 08:59:08 AM 43.1478 -77.9767 268° West 369 425 36,000  Level Cleveland Center
Fri 09:00:08 AM 43.1467 -78.1161 269° West 369 425 36,000  Level Cleveland Center
Fri 09:01:08 AM 43.1433 -78.2586 268° West 369 425 36,000  Level Cleveland Center
Fri 09:02:08 AM 43.1419 -78.4008 269° West 369 425 36,000  Level Cleveland Center
Fri 09:03:08 AM 43.1383 -78.5406 268° West 374 430 36,000  Level Cleveland Center
Fri 09:04:08 AM 43.1344 -78.6828 268° West 374 430 36,000  Level Cleveland Center
Fri 09:05:08 AM 43.1303 -78.8222 268° West 374 430 36,000  Level Cleveland Center
Fri 09:05:36 AM 43.1167 -78.8833 253° West 380 437 36,000  Level Toronto Center
Fri 09:06:36 AM 43.1167 -79.0333 270° West 380 437 36,000  Level Toronto Center
Fri 09:07:36 AM 43.1167 -79.1833 270° West 380 437 36,000  Level Toronto Center
Fri 09:08:36 AM 43.1000 -79.3167 260° West 380 437 36,000  Level Toronto Center
Fri 09:09:36 AM 43.1000 -79.4500 270° West 380 437 36,000  Level Toronto Center
Fri 09:10:36 AM 43.1000 -79.5833 270° West 380 437 36,000  Level Toronto Center
Fri 09:11:36 AM 43.0833 -79.7500 262° West 380 437 36,000  Level Toronto Center
Fri 09:12:36 AM 43.0833 -79.8833 270° West 380 437 36,000  Level Toronto Center
Fri 09:13:36 AM 43.0833 -80.0500 270° West 380 437 36,000  Level Toronto Center
Fri 09:14:36 AM 43.0667 -80.1833 260° West 380 437 36,000  Level Toronto Center
Fri 09:15:36 AM 43.0667 -80.3167 270° West 380 437 36,000  Level Toronto Center
Fri 09:16:36 AM 43.0667 -80.4500 270° West 380 437 36,000  Level Toronto Center
Fri 09:17:36 AM 43.0500 -80.6167 262° West 380 437 36,000  Level Toronto Center
Fri 09:18:36 AM 43.0500 -80.7500 270° West 380 437 36,000  Level Toronto Center
Fri 09:19:36 AM 43.0333 -80.9167 262° West 380 437 36,000  Level Toronto Center
Fri 09:20:36 AM 43.0167 -81.0500 260° West 380 437 36,000  Level Toronto Center
Fri 09:21:36 AM 43.0167 -81.1833 270° West 380 437 36,000  Level Toronto Center
Fri 09:22:36 AM 43.0167 -81.3167 270° West 370 426 36,000  Level Toronto Center
Fri 09:23:36 AM 43.0167 -81.4500 270° West 370 426 36,000  Level Toronto Center
Fri 09:24:36 AM 43.0167 -81.6167 270° West 380 437 36,000  Level Toronto Center
Fri 09:25:36 AM 43.0167 -81.7500 270° West 380 437 36,000  Level Toronto Center
Fri 09:26:36 AM 43.0167 -81.8833 270° West 370 426 36,000  Level Toronto Center
Fri 09:27:36 AM 43.0000 -82.0500 262° West 380 437 36,000  Level Toronto Center
Fri 09:28:36 AM 43.0000 -82.1833 270° West 380 437 36,000  Level Toronto Center
Fri 09:29:36 AM 43.0000 -82.3167 270° West 380 437 36,000  Level Toronto Center
Fri 09:30:36 AM 43.0000 -82.4833 270° West 380 437 36,000  Level Toronto Center
Fri 09:31:36 AM 43.0000 -82.6167 270° West 380 437 36,000  Level Toronto Center
Fri 09:32:36 AM 42.9833 -82.7500 260° West 380 437 36,000 -50 Level Toronto Center
Fri 09:33:36 AM 42.9667 -82.9167 262° West 380 437 35,900 -750 Descending Toronto Center
Fri 09:34:36 AM 42.9667 -83.0500 270° West 380 437 34,500 -1,450 Descending Toronto Center
Fri 09:35:36 AM 42.9500 -83.2167 262° West 390 449 33,000 -1,250 Descending Toronto Center
Fri 09:36:36 AM 42.9500 -83.3500 270° West 390 449 32,000 -500 Descending Toronto Center
Fri 09:37:36 AM 42.9500 -83.5000 270° West 390 449 32,000  Level Toronto Center
Fri 09:38:36 AM 42.9333 -83.6333 260° West 390 449 32,000  Level Toronto Center
Fri 09:39:36 AM 42.9167 -83.7833 261° West 400 460 32,000  Level Toronto Center
Fri 09:40:36 AM 42.9167 -83.9333 270° West 400 460 32,000  Level Toronto Center
Fri 09:41:36 AM 42.9167 -84.1000 270° West 400 460 32,000  Level Toronto Center
Fri 09:42:36 AM 42.8833 -84.2500 253° West 400 460 32,000  Level Toronto Center
Fri 09:43:36 AM 42.8833 -84.3833 270° West 400 460 32,000  Level Toronto Center
Fri 09:44:36 AM 42.8667 -84.5500 262° West 400 460 32,000  Level Toronto Center
Fri 09:45:36 AM 42.8667 -84.7000 270° West 400 460 32,000  Level Toronto Center
Fri 09:46:36 AM 42.8500 -84.8333 260° West 400 460 32,000  Level Toronto Center
Fri 09:47:36 AM 42.8167 -85.0000 255° West 400 460 32,000  Level Toronto Center
Fri 09:48:46 AM 42.8242 -85.1531 274° West 407 468 32,000  Level Chicago Center
Fri 09:49:47 AM 42.8078 -85.3042 262° West 407 468 32,000 -829 Level Chicago Center
Fri 09:50:49 AM 42.7886 -85.4856 262° West 407 468 30,300 -1,790 Descending Chicago Center
Fri 09:51:51 AM 42.7614 -85.6381 256° West 416 479 28,300 -1,935 Descending Chicago Center
Fri 09:52:53 AM 42.7353 -85.7883 257° West 413 475 26,300 -1,951 Descending Chicago Center
Fri 09:53:54 AM 42.7083 -85.9356 256° West 407 468 24,300 -1,951 Descending Chicago Center
Fri 09:54:56 AM 42.6814 -86.0819 256° West 403 464 22,300 -1,935 Descending Chicago Center
Fri 09:55:58 AM 42.6544 -86.2231 255° West 392 451 20,300 -1,113 Descending Chicago Center
Fri 09:57:00 AM 42.6247 -86.3872 256° West 376 433 20,000 -1,065 Descending Chicago Center
Fri 09:58:02 AM 42.5989 -86.5250 256° West 380 437 18,100 -1,790 Descending Chicago Center
Fri 09:59:04 AM 42.5747 -86.6494 255° West 352 405 16,300 -1,790 Descending Chicago Center
Fri 10:00:06 AM 42.5483 -86.7675 253° West 337 388 14,400 -1,790 Descending Chicago Center
Fri 10:01:08 AM 42.5172 -86.8842 250° West 332 382 12,600 -1,984 Descending Chicago Center
Fri 10:02:10 AM 42.4794 -87.0217 250° West 327 376 10,300 -1,258 Descending Chicago Center
Fri 10:03:12 AM 42.4486 -87.1369 250° West 327 376 10,000 -532 Descending Chicago Center
Fri 10:04:14 AM 42.4203 -87.2389 249° West 295 339 9,200 -484 Descending Chicago Center
Fri 10:05:16 AM 42.3917 -87.3325 248° West 272 313 9,000 -242 Descending Chicago Center
Fri 10:06:18 AM 42.3508 -87.4206 238° Southwest 277 319 8,700 -919 Descending Chicago Center
Fri 10:07:20 AM 42.3064 -87.5211 239° Southwest 263 303 7,100 -823 Descending Chicago Center
Fri 10:08:22 AM 42.2647 -87.6028 235° Southwest 269 310 7,000 -339 Descending Chicago Center
Fri 10:09:24 AM 42.2072 -87.6622 217° Southwest 265 305 6,400 -1,161 Descending Chicago Center
Fri 10:10:26 AM 42.1519 -87.7231 219° Southwest 260 299 4,600 -1,403 Descending Chicago Center
Fri 10:11:28 AM 42.1069 -87.7775 222° Southwest 235 270 3,500 -1,062 Descending Chicago Center
Fri 10:12:19 AM 42.0667 -87.8167 216° Southwest 172 198 2,600 -1,027 Descending Chicago TRACON
Fri 10:13:19 AM 42.0333 -87.8500 217° Southwest 154 177 1,600 -850 Descending Chicago TRACON
Fri 10:14:19 AM 42.0000 -87.8833 217° Southwest 145 167 900 -700 Descending Chicago TRACON
Fri 10:16:00 AM 41.9817 -87.9067 206° Southwest  Level Estimated

Login

Don't have an account? Register now (free) for customized features, flight alerts, and more!